Time;durP1;ratioP1;P1;durP2;ratioP2;P2;SDS_P1;SDS_P2;PMS_P1;PMS_P2;Temp;Humidity;BMP_temperature;BMP_pressure;BME280_temperature;BME280_humidity;BME280_pressure;Samples;Min_cycle;Max_cycle;Signal;HPM_P1;HPM_P2
2022/07/05 00:01:20;;;;;;;47.35;32.47;;;;;;;-143.10;100.00;51073.34;4770745;29;20059;-61
2022/07/05 00:04:09;;;;;;;48.70;33.45;;;;;;;-143.10;100.00;51065.50;4773089;29;20142;-62
2022/07/05 00:10:00;;;;;;;54.95;36.22;;;;;;;-143.10;100.00;51057.66;4772381;29;20071;-63
2022/07/05 00:12:41;;;;;;;43.70;30.92;;;;;;;-143.10;100.00;51053.75;4767168;30;20053;-63
2022/07/05 00:15:31;;;;;;;41.00;24.05;;;;;;;-143.10;100.00;51075.28;4781391;30;20055;-63
2022/07/05 00:18:28;;;;;;;37.15;21.38;;;;;;;-143.10;100.00;51040.03;4780796;29;20055;-64
2022/07/05 00:21:04;;;;;;;30.15;18.67;;;;;;;-143.10;100.00;51061.59;4762716;30;20051;-63
2022/07/05 00:23:53;;;;;;;27.02;18.63;;;;;;;-143.10;100.00;51053.75;4781417;30;20067;-63
2022/07/05 00:26:36;;;;;;;25.88;17.75;;;;;;;-143.10;100.00;51100.75;4780818;30;20409;-63
2022/07/05 00:29:31;;;;;;;28.38;16.88;;;;;;;-143.10;100.00;51026.34;4780788;30;20051;-64
2022/07/05 00:32:06;;;;;;;22.33;16.35;;;;;;;-143.10;100.00;51053.75;4778568;29;20062;-64
2022/07/05 00:34:55;;;;;;;22.52;15.68;;;;;;;-143.10;100.00;51069.41;4765074;30;20063;-64
2022/07/05 00:37:38;;;;;;;20.75;15.82;;;;;;;-143.10;100.00;51063.53;4782638;29;20051;-64
2022/07/05 00:40:33;;;;;;;23.73;15.10;;;;;;;-143.10;100.00;51071.38;4779879;29;20488;-63
2022/07/05 00:43:08;;;;;;;23.20;15.75;;;;;;;-143.10;100.00;51055.72;4779634;29;20138;-64
2022/07/05 00:46:04;;;;;;;24.58;15.73;;;;;;;-143.10;100.00;51053.75;4780215;30;20130;-63
2022/07/05 00:48:57;;;;;;;25.77;16.02;;;;;;;-143.10;100.00;51051.78;4779749;30;20070;-63
2022/07/05 00:51:46;;;;;;;23.63;15.38;;;;;;;-143.10;100.00;51061.59;4780604;29;20062;-64
2022/07/05 00:54:55;;;;;;;19.35;15.05;;;;;;;-143.10;100.00;51077.25;4779608;29;20160;-63
2022/07/05 00:57:39;;;;;;;24.27;16.50;;;;;;;-143.10;100.00;51053.75;4781650;29;20054;-64
2022/07/05 01:00:34;;;;;;;24.98;17.25;;;;;;;-143.10;100.00;51061.59;4797469;29;20127;-64
2022/07/05 01:03:23;;;;;;;23.98;16.58;;;;;;;-143.10;100.00;51053.75;4793616;29;20066;-64
2022/07/05 01:06:17;;;;;;;24.98;17.67;;;;;;;-143.10;100.00;51065.50;4780697;29;20066;-63
2022/07/05 01:08:59;;;;;;;28.73;17.48;;;;;;;-143.10;100.00;51063.53;4795218;29;20051;-63
2022/07/05 01:11:51;;;;;;;27.00;18.63;;;;;;;-143.10;100.00;51067.47;4798653;29;20069;-64
2022/07/05 01:14:33;;;;;;;26.35;20.13;;;;;;;-143.10;100.00;51065.50;4798556;29;20066;-64
2022/07/05 01:17:23;;;;;;;28.55;20.35;;;;;;;-143.10;100.00;51057.66;4798439;29;20050;-63
2022/07/05 01:20:07;;;;;;;36.95;21.77;;;;;;;-143.10;100.00;51051.78;4783573;29;20055;-64
2022/07/05 01:23:04;;;;;;;35.03;22.52;;;;;;;-143.10;100.00;51077.25;4798269;29;20736;-64
2022/07/05 01:25:49;;;;;;;33.53;23.08;;;;;;;-143.10;100.00;51087.03;4798928;29;20054;-64
2022/07/05 01:28:39;;;;;;;31.60;22.27;;;;;;;-143.10;100.00;51061.59;4782472;29;20138;-63
2022/07/05 01:31:21;;;;;;;37.75;23.95;;;;;;;-143.10;100.00;51085.06;4782037;29;20146;-62
2022/07/05 01:34:12;;;;;;;37.42;23.88;;;;;;;-143.10;100.00;51049.84;4798187;29;20074;-63
2022/07/05 01:36:54;;;;;;;34.75;23.83;;;;;;;-143.10;100.00;51053.75;4798873;29;20078;-63
2022/07/05 01:39:44;;;;;;;39.80;27.02;;;;;;;-143.10;100.00;51042.00;4784564;29;20059;-62
2022/07/05 01:42:27;;;;;;;38.58;26.80;;;;;;;-143.10;100.00;51067.47;4784447;29;20641;-63
2022/07/05 01:45:38;;;;;;;33.20;25.48;;;;;;;-143.10;100.00;51038.09;4816872;29;20050;-63
2022/07/05 01:48:21;;;;;;;37.60;25.43;;;;;;;-143.10;100.00;51077.25;4784252;29;20058;-63
2022/07/05 01:51:14;;;;;;;41.72;28.98;;;;;;;-143.10;100.00;51061.59;4800437;29;20838;-63
2022/07/05 01:53:57;;;;;;;42.42;29.20;;;;;;;-143.10;100.00;51049.84;4786132;29;20142;-63
2022/07/05 01:56:46;;;;;;;39.17;28.55;;;;;;;-143.10;100.00;51073.34;4786109;29;20543;-63
2022/07/05 01:59:36;;;;;;;41.60;30.95;;;;;;;-143.10;99.59;51012.63;4785679;29;20059;-64
2022/07/05 02:02:19;;;;;;;46.65;32.22;;;;;;;-143.10;98.54;51038.09;4802463;29;20054;-63
2022/07/05 02:05:15;;;;;;;44.25;31.23;;;;;;;-143.10;96.17;51043.97;4801739;29;20149;-63
2022/07/05 02:07:50;;;;;;;42.72;29.63;;;;;;;-143.10;95.38;51008.72;4785534;29;20597;-64
2022/07/05 02:10:41;;;;;;;40.30;28.65;;;;;;;-143.10;95.47;51022.44;4785203;29;20580;-64
2022/07/05 02:13:31;;;;;;;40.83;29.13;;;;;;;-143.10;93.30;51026.34;4785589;29;20111;-64
2022/07/05 02:16:28;;;;;;;45.78;29.38;;;;;;;-143.10;92.16;51036.13;4800954;29;20045;-64
2022/07/05 02:19:11;;;;;;;41.33;28.38;;;;;;;-143.10;91.07;51020.47;4794403;29;20383;-64
2022/07/05 02:22:01;;;;;;;37.65;27.65;;;;;;;-143.10;90.52;51042.00;4799821;29;20115;-64
2022/07/05 02:24:44;;;;;;;37.53;26.63;;;;;;;-143.10;89.18;51006.75;4785119;29;20145;-64
2022/07/05 02:27:32;;;;;;;37.35;26.30;;;;;;;-143.10;88.11;51006.75;4798748;29;21277;-64
2022/07/05 02:30:23;;;;;;;40.25;26.42;;;;;;;-143.10;89.51;51049.84;4802273;29;20051;-63
2022/07/05 02:33:05;;;;;;;38.72;26.70;;;;;;;-143.10;89.79;51032.22;4803281;29;20058;-64
2022/07/05 02:35:56;;;;;;;45.92;28.05;;;;;;;-143.10;89.03;51020.47;4817921;29;20050;-64
2022/07/05 02:38:44;;;;;;;41.50;28.23;;;;;;;-143.10;88.30;51024.38;4816498;29;20064;-64
2022/07/05 02:41:27;;;;;;;39.38;27.48;;;;;;;-143.10;89.84;51020.47;4817180;29;20061;-64
2022/07/05 02:44:16;;;;;;;39.33;28.23;;;;;;;-143.10;91.14;50971.53;4817718;29;20050;-65
2022/07/05 02:46:59;;;;;;;39.72;27.80;;;;;;;-143.10;90.57;51024.38;4801881;29;20064;-64
2022/07/05 02:49:48;;;;;;;37.30;28.70;;;;;;;-143.10;88.49;51032.22;4797916;29;20050;-64
2022/07/05 02:52:30;;;;;;;38.85;28.92;;;;;;;-143.10;87.22;51014.59;4766850;29;20083;-64
2022/07/05 02:55:20;;;;;;;37.92;28.05;;;;;;;-143.10;86.72;50993.06;4795531;29;20051;-64
2022/07/05 02:58:09;;;;;;;41.60;30.23;;;;;;;-143.10;86.05;51020.47;4766310;29;20128;-64
2022/07/05 03:01:06;;;;;;;43.38;30.65;;;;;;;-143.10;88.29;51045.91;4786749;29;20059;-63
2022/07/05 03:03:55;;;;;;;43.08;30.30;;;;;;;-143.10;89.03;51026.34;4765786;30;20110;-63
2022/07/05 03:06:39;;;;;;;46.47;31.17;;;;;;;-143.10;86.02;51028.31;4799070;29;20058;-63
2022/07/05 03:09:35;;;;;;;45.90;32.20;;;;;;;-143.10;85.63;51014.59;4798940;29;20057;-63
2022/07/05 03:12:19;;;;;;;43.53;31.15;;;;;;;-143.10;86.19;51030.25;4799151;29;20049;-64
2022/07/05 03:15:09;;;;;;;44.15;32.97;;;;;;;-143.10;85.39;51018.50;4791698;29;20055;-64
2022/07/05 03:17:53;;;;;;;50.85;32.67;;;;;;;-143.10;85.90;50987.19;4780998;30;20051;-64
2022/07/05 03:20:49;;;;;;;47.42;33.38;;;;;;;-143.10;86.68;50983.28;4762733;30;20055;-64
2022/07/05 03:23:27;;;;;;;46.67;31.45;;;;;;;-143.10;85.79;50987.19;4766219;30;20051;-64
2022/07/05 03:26:16;;;;;;;47.25;29.92;;;;;;;-143.10;82.03;50971.53;4765972;30;20416;-64
2022/07/05 03:29:00;;;;;;;44.72;30.83;;;;;;;-143.10;81.29;50977.41;4775300;29;20055;-64
2022/07/05 03:31:56;;;;;;;48.92;31.58;;;;;;;-143.10;81.52;50995.03;4783529;29;20150;-64
2022/07/05 03:34:31;;;;;;;46.17;31.23;;;;;;;-143.10;81.14;50996.97;4790669;29;20693;-63
2022/07/05 03:37:22;;;;;;;38.28;30.95;;;;;;;-143.10;81.97;50998.94;4765191;29;20371;-63
2022/07/05 03:40:06;;;;;;;40.33;30.23;;;;;;;-143.10;80.92;50987.19;4766399;30;20058;-64
2022/07/05 03:42:56;;;;;;;42.25;28.38;;;;;;;-143.10;82.56;50979.34;4752410;30;20142;-64
2022/07/05 03:45:42;;;;;;;34.95;26.58;;;;;;;-143.10;79.68;50967.59;4765658;30;20374;-64
2022/07/05 03:48:34;;;;;;;46.83;30.13;;;;;;;-143.10;81.13;50989.16;4765698;30;20392;-63
2022/07/05 03:51:25;;;;;;;36.53;25.48;;;;;;;-143.10;79.80;51006.75;4775083;29;20080;-63
2022/07/05 03:54:09;;;;;;;33.90;25.98;;;;;;;-143.10;78.55;50965.66;4796553;29;20375;-64
2022/07/05 03:56:58;;;;;;;40.90;28.42;;;;;;;-143.10;76.29;50957.81;4782357;29;20070;-63
2022/07/05 03:59:40;;;;;;;36.92;27.13;;;;;;;-143.10;80.43;50975.44;4790721;29;20070;-63
2022/07/05 04:02:36;;;;;;;36.78;24.58;;;;;;;-143.10;77.23;50971.53;4790130;29;20150;-64
2022/07/05 04:05:24;;;;;;;33.45;26.33;;;;;;;-143.10;76.44;50969.56;4797494;29;20055;-64
2022/07/05 04:08:07;;;;;;;36.65;24.90;;;;;;;-143.10;78.19;50983.28;4799080;29;20054;-63
2022/07/05 04:10:55;;;;;;;36.45;26.02;;;;;;;-143.10;80.07;50965.66;4797791;29;20046;-63
2022/07/05 04:13:40;;;;;;;36.15;24.70;;;;;;;-143.10;80.27;50991.09;4782780;29;20070;-63
2022/07/05 04:16:35;;;;;;;31.60;25.00;;;;;;;-143.10;77.97;50953.91;4782374;29;20058;-64
2022/07/05 04:19:10;;;;;;;33.65;25.52;;;;;;;-143.10;76.75;50967.59;4797306;29;20054;-65
2022/07/05 04:22:06;;;;;;;34.70;24.52;;;;;;;-143.10;76.86;50950.00;4797665;29;20059;-63
2022/07/05 04:27:59;;;;;;;29.92;23.23;;;;;;;-143.10;74.62;50998.94;4782156;29;20769;-63
2022/07/05 04:30:36;;;;;;;32.08;24.40;;;;;;;-143.10;77.30;50995.03;4782846;29;20747;-63
2022/07/05 04:33:34;;;;;;;30.05;24.10;;;;;;;-143.10;79.00;50977.41;4793613;29;20058;-63
2022/07/05 04:36:12;;;;;;;30.88;23.80;;;;;;;-143.10;80.21;50965.66;4810352;29;20107;-63
2022/07/05 04:39:04;;;;;;;30.38;24.40;;;;;;;-143.10;77.95;50969.56;4807147;29;20526;-63
2022/07/05 04:41:55;;;;;;;35.72;24.88;;;;;;;-143.10;76.46;50969.56;4782052;29;20053;-62
2022/07/05 04:44:44;;;;;;;29.80;24.23;;;;;;;-143.10;81.33;50967.59;4797436;29;20146;-63
2022/07/05 04:47:27;;;;;;;38.15;24.45;;;;;;;-143.10;79.45;50971.53;4796475;29;20058;-64
2022/07/05 04:50:22;;;;;;;33.33;25.40;;;;;;;-143.10;77.24;50991.09;4764705;29;20062;-66
2022/07/05 04:52:58;;;;;;;30.52;23.27;;;;;;;-143.10;79.50;50965.66;4779584;30;20055;-67
2022/07/05 04:55:53;;;;;;;33.72;25.45;;;;;;;-143.10;76.90;50989.16;4780257;29;20819;-66
2022/07/05 04:58:28;;;;;;;33.60;24.40;;;;;;;-143.10;75.33;50934.31;4789024;29;20055;-65
2022/07/05 05:01:23;;;;;;;36.28;24.67;;;;;;;-143.10;78.65;50955.88;4806837;29;20131;-64
2022/07/05 05:04:19;;;;;;;39.15;25.35;;;;;;;-143.10;73.78;50963.69;4766198;29;20066;-65
2022/07/05 05:06:54;;;;;;;32.47;23.27;;;;;;;-143.10;74.32;50967.59;4763284;30;20059;-66
2022/07/05 05:09:43;;;;;;;36.67;25.88;;;;;;;-143.10;73.36;50944.13;4757774;29;20055;-64
2022/07/05 05:12:26;;;;;;;38.03;27.42;;;;;;;-143.10;75.54;50957.81;4762654;30;20080;-66
2022/07/05 05:15:15;;;;;;;35.30;27.08;;;;;;;-143.10;76.28;50971.53;4769247;29;20265;-68
2022/07/05 05:17:57;;;;;;;32.03;24.02;;;;;;;-143.10;73.93;50967.59;4765455;30;20754;-66
2022/07/05 05:20:46;;;;;;;28.70;22.98;;;;;;;-143.10;72.23;50959.78;4768157;29;20152;-66
2022/07/05 05:23:35;;;;;;;31.95;22.13;;;;;;;-143.10;68.53;50942.16;4779416;29;20677;-67
2022/07/05 05:26:16;;;;;;;29.70;21.42;;;;;;;-143.10;71.55;50971.53;4772008;29;20552;-67
2022/07/05 05:29:12;;;;;;;36.25;25.77;;;;;;;-143.10;75.38;50959.78;4764690;29;20083;-66
2022/07/05 05:31:54;;;;;;;34.33;24.05;;;;;;;-143.10;77.56;50940.19;4750641;30;20055;-67
2022/07/05 05:34:44;;;;;;;36.15;25.67;;;;;;;-143.10;74.46;50965.66;4768661;30;20136;-65
2022/07/05 05:37:25;;;;;;;30.27;24.73;;;;;;;-143.10;78.65;50950.00;4755480;30;20099;-66
2022/07/05 05:40:52;;;;;;;33.15;26.13;;;;;;;-143.10;72.61;50975.44;4753297;30;20189;-65
2022/07/05 05:43:42;;;;;;;33.35;24.17;;;;;;;-143.10;73.63;50955.88;4768947;29;20079;-65
2022/07/05 05:46:23;;;;;;;33.33;24.17;;;;;;;-143.10;71.77;50944.13;4781678;29;20059;-65
2022/07/05 05:49:13;;;;;;;31.13;25.20;;;;;;;-143.10;70.97;50963.69;4771539;29;20051;-65
2022/07/05 05:52:01;;;;;;;41.00;25.00;;;;;;;-143.10;71.61;50969.56;4772169;29;20124;-66
2022/07/05 05:54:44;;;;;;;28.00;23.63;;;;;;;-143.10;73.94;50967.59;4777919;29;20132;-66
2022/07/05 05:57:35;;;;;;;31.60;22.65;;;;;;;-143.10;72.29;50959.78;4774409;29;20543;-64
2022/07/05 06:00:58;;;;;;;29.77;23.00;;;;;;;-143.10;70.83;50944.13;4770923;30;20062;-65
2022/07/05 06:04:18;;;;;;;28.73;21.73;;;;;;;-143.10;68.96;50950.00;4783793;29;20126;-67
2022/07/05 06:06:59;;;;;;;24.25;20.40;;;;;;;-143.10;70.46;50961.72;4790751;29;20140;-65
2022/07/05 06:10:00;;;;;;;29.67;20.52;;;;;;;-143.10;73.66;50953.91;4790184;29;20058;-67
2022/07/05 06:12:43;;;;;;;29.63;21.17;;;;;;;-143.10;75.69;50948.03;4799771;29;20055;-66
2022/07/05 06:15:32;;;;;;;29.70;21.45;;;;;;;-143.10;74.19;50957.81;4776694;29;20092;-67
2022/07/05 06:18:25;;;;;;;34.60;21.42;;;;;;;-143.10;76.61;50946.06;4804082;29;20146;-67
2022/07/05 06:21:06;;;;;;;29.73;21.60;;;;;;;-143.10;73.90;50944.13;4798900;29;20051;-66
2022/07/05 06:24:05;;;;;;;32.30;22.83;;;;;;;-143.10;74.20;50955.88;4790876;29;20384;-67
2022/07/05 06:26:49;;;;;;;26.75;21.98;;;;;;;-143.10;77.02;50959.78;4774486;29;20066;-67
2022/07/05 06:29:39;;;;;;;27.98;21.52;;;;;;;-143.10;73.90;50955.88;4756149;29;20055;-68
2022/07/05 06:32:27;;;;;;;24.23;20.58;;;;;;;-143.10;68.58;50944.13;4787039;29;20055;-70
2022/07/05 06:35:10;;;;;;;26.50;21.58;;;;;;;-143.10;73.43;50944.13;4777885;29;20073;-70
2022/07/05 06:38:07;;;;;;;24.27;19.55;;;;;;;-143.10;71.93;50951.94;4793001;29;20519;-67
2022/07/05 06:40:56;;;;;;;28.92;22.65;;;;;;;-143.10;69.96;50948.03;4799922;29;20046;-67
2022/07/05 06:43:45;;;;;;;24.85;20.92;;;;;;;-143.10;70.19;50967.59;4793457;29;20483;-67
2022/07/05 06:46:53;;;;;;;22.88;20.33;;;;;;;-143.10;77.60;50973.47;4789428;29;20058;-69
2022/07/05 06:49:38;;;;;;;25.17;19.95;;;;;;;-143.10;72.23;50948.03;4788267;29;20054;-69
2022/07/05 06:52:28;;;;;;;27.15;22.20;;;;;;;-143.10;68.48;50928.44;4802297;29;20057;-68
2022/07/05 06:55:16;;;;;;;27.67;21.80;;;;;;;-143.10;73.27;50957.81;4756295;29;20132;-68
2022/07/05 06:58:11;;;;;;;25.33;19.95;;;;;;;-143.10;72.80;50969.56;4783017;29;20525;-67
2022/07/05 07:00:53;;;;;;;27.90;21.13;;;;;;;-143.10;73.13;50940.19;4799534;29;20116;-67
2022/07/05 07:04:06;;;;;;;22.90;19.95;;;;;;;-143.10;69.02;50936.28;4791114;29;20070;-65
2022/07/05 07:06:59;;;;;;;26.98;20.52;;;;;;;-143.10;66.07;50955.88;4782381;29;20498;-67
2022/07/05 07:09:49;;;;;;;29.90;22.42;;;;;;;-143.10;66.66;50944.13;4788082;29;20059;-67
2022/07/05 07:12:30;;;;;;;25.45;21.17;;;;;;;-143.10;69.53;50893.22;4792803;29;20059;-68
2022/07/05 07:15:20;;;;;;;32.35;21.42;;;;;;;-143.10;68.39;50930.41;4797720;29;20137;-69
2022/07/05 07:18:02;;;;;;;22.88;19.77;;;;;;;-143.10;68.13;50951.94;4792636;29;20074;-65
2022/07/05 07:20:51;;;;;;;26.05;19.83;;;;;;;-143.10;69.26;50918.66;4792590;29;20050;-68
2022/07/05 07:23:33;;;;;;;25.90;20.50;;;;;;;-143.10;66.13;50948.03;4788594;29;20048;-64
2022/07/05 07:26:22;;;;;;;26.92;20.77;;;;;;;-143.10;72.46;50920.63;4793750;29;20046;-66
2022/07/05 07:29:03;;;;;;;22.80;19.15;;;;;;;-143.10;68.98;50934.31;4790144;29;20141;-64
2022/07/05 07:31:53;;;;;;;24.15;20.02;;;;;;;-143.10;67.01;50914.75;4788866;29;20159;-67
2022/07/05 07:34:48;;;;;;;29.38;20.42;;;;;;;-143.10;66.91;50934.31;4789576;29;20131;-68
2022/07/05 07:37:26;;;;;;;24.05;19.73;;;;;;;-143.10;68.39;50963.69;4780343;29;20142;-67
2022/07/05 07:40:23;;;;;;;23.85;19.88;;;;;;;-143.10;73.15;50959.78;4785096;29;20104;-67
2022/07/05 07:42:59;;;;;;;25.75;19.40;;;;;;;-143.10;71.48;50950.00;4784696;29;20672;-65
2022/07/05 07:45:51;;;;;;;26.58;20.45;;;;;;;-143.10;67.38;50940.19;4789412;29;20119;-65
2022/07/05 07:48:40;;;;;;;28.60;20.08;;;;;;;-143.10;65.76;50928.44;4797344;29;20138;-64
2022/07/05 07:51:22;;;;;;;24.10;19.88;;;;;;;-143.10;72.31;50932.38;4782075;30;20112;-64
2022/07/05 07:54:11;;;;;;;23.17;19.10;;;;;;;-143.10;67.08;50951.94;4799636;29;20708;-65
2022/07/05 07:56:52;;;;;;;24.83;20.38;;;;;;;-143.10;65.60;50928.44;4800140;29;20055;-66
2022/07/05 07:59:42;;;;;;;26.48;19.50;;;;;;;-143.10;66.82;50936.28;4811275;29;20154;-66
2022/07/05 08:02:31;;;;;;;24.10;20.08;;;;;;;-143.10;64.80;50908.88;4806754;29;20101;-65
2022/07/05 08:05:27;;;;;;;23.23;19.02;;;;;;;-143.10;63.66;50928.44;4780272;29;20055;-65
2022/07/05 08:08:15;;;;;;;22.67;19.05;;;;;;;-143.10;66.58;50914.75;4799990;29;20484;-65
2022/07/05 08:10:59;;;;;;;24.17;19.15;;;;;;;-143.10;67.54;50944.13;4791280;29;20428;-65
2022/07/05 08:13:48;;;;;;;25.20;19.90;;;;;;;-143.10;65.12;50936.28;4798501;29;20520;-65
2022/07/05 08:16:30;;;;;;;26.48;18.98;;;;;;;-143.10;69.09;50910.84;4795713;29;20059;-65
2022/07/05 08:22:21;;;;;;;25.95;21.02;;;;;;;-143.10;71.17;50912.78;4788632;29;20082;-65
2022/07/05 08:25:13;;;;;;;29.60;21.20;;;;;;;-143.10;68.25;50906.91;4784690;29;20087;-64
2022/07/05 08:27:56;;;;;;;33.22;24.33;;;;;;;-143.10;67.59;50971.53;4788352;29;20055;-66
2022/07/05 08:30:44;;;;;;;33.90;24.90;;;;;;;-143.10;68.68;50912.78;4790231;29;20447;-66
2022/07/05 08:33:27;;;;;;;31.50;23.13;;;;;;;-143.10;70.15;50916.72;4783529;29;20055;-66
2022/07/05 08:36:22;;;;;;;35.10;26.85;;;;;;;-143.10;69.06;50918.66;4786576;29;20425;-66
2022/07/05 08:39:11;;;;;;;32.90;25.88;;;;;;;-143.10;68.87;50951.94;4796666;29;20069;-67
2022/07/05 08:41:57;;;;;;;37.03;26.17;;;;;;;-143.10;68.83;50946.06;4795810;29;20412;-67
2022/07/05 08:44:49;;;;;;;36.55;26.15;;;;;;;-143.10;69.12;50948.03;4788199;29;20058;-67
2022/07/05 08:47:33;;;;;;;32.38;25.15;;;;;;;-143.10;71.50;50950.00;4789301;29;20697;-67
2022/07/05 08:50:23;;;;;;;30.70;23.70;;;;;;;-143.10;71.26;50940.19;4786762;29;20058;-65
2022/07/05 08:53:08;;;;;;;34.70;24.45;;;;;;;-143.10;72.12;50932.38;4790142;29;20054;-68
2022/07/05 08:55:59;;;;;;;31.40;23.25;;;;;;;-143.10;72.47;50934.31;4787157;29;20487;-69
2022/07/05 08:58:43;;;;;;;32.00;21.90;;;;;;;-143.10;70.95;50948.03;4792407;29;20065;-69
2022/07/05 09:01:39;;;;;;;34.58;21.15;;;;;;;-143.10;71.65;50920.63;4792585;29;20059;-68
2022/07/05 09:04:22;;;;;;;31.52;21.20;;;;;;;-143.10;77.54;50948.03;4781294;29;20134;-70
2022/07/05 09:07:12;;;;;;;30.10;21.05;;;;;;;-143.10;70.95;50959.78;4790193;29;20123;-68
2022/07/05 09:10:00;;;;;;;26.25;21.05;;;;;;;-143.10;69.42;50928.44;4788432;29;20055;-66
2022/07/05 09:12:49;;;;;;;28.10;19.75;;;;;;;-143.10;69.94;50983.28;4785716;29;20472;-73
2022/07/05 09:15:31;;;;;;;23.70;20.35;;;;;;;-143.10;71.31;50904.97;4789443;29;20055;-68
2022/07/05 09:18:20;;;;;;;27.67;20.55;;;;;;;-143.10;73.38;50936.28;4785578;29;21557;-67
2022/07/05 09:21:21;;;;;;;28.35;19.95;;;;;;;-143.10;72.43;50932.38;4797514;29;20054;-68
2022/07/05 09:24:12;;;;;;;23.65;19.13;;;;;;;-143.10;72.20;50948.03;4797543;29;20719;-68
2022/07/05 09:27:05;;;;;;;29.60;19.88;;;;;;;-143.10;71.61;50963.69;4799841;29;20070;-68
2022/07/05 09:30:01;;;;;;;28.02;20.17;;;;;;;-143.10;71.37;50961.72;4810727;29;20131;-68
2022/07/05 09:32:50;;;;;;;26.40;21.08;;;;;;;-143.10;73.22;50936.28;4794673;29;20103;-67
2022/07/05 09:35:43;;;;;;;31.90;19.60;;;;;;;-143.10;74.08;50946.06;4786644;29;20051;-65
2022/07/05 09:38:30;;;;;;;25.95;19.95;;;;;;;-143.10;71.37;50944.13;4782596;29;20063;-67
2022/07/05 09:41:18;;;;;;;29.77;19.60;;;;;;;-143.10;70.93;50936.28;4791009;29;20073;-66
2022/07/05 09:44:08;;;;;;;31.80;19.65;;;;;;;-143.10;79.79;50940.19;4786097;29;20074;-68
2022/07/05 09:47:10;;;;;;;26.25;17.98;;;;;;;-143.10;73.20;50959.78;4788368;29;20174;-68
2022/07/05 09:50:03;;;;;;;31.27;19.52;;;;;;;-143.10;75.94;50944.13;4801556;29;20059;-66
2022/07/05 09:52:56;;;;;;;24.45;18.17;;;;;;;-143.10;77.18;50959.78;4795281;29;20059;-69
2022/07/05 09:55:45;;;;;;;25.02;19.88;;;;;;;-143.10;79.74;50942.16;4791079;29;20086;-69
2022/07/05 09:58:27;;;;;;;25.40;19.85;;;;;;;-143.10;75.57;50938.25;4793483;29;20058;-67
2022/07/05 10:01:37;;;;;;;24.38;18.70;;;;;;;-143.10;78.94;50944.13;4795032;29;20116;-71
2022/07/05 10:04:19;;;;;;;28.23;18.58;;;;;;;-143.10;79.76;50995.03;4770743;29;20055;-69
2022/07/05 10:07:09;;;;;;;24.00;18.05;;;;;;;-143.10;78.78;50979.34;4777957;29;20054;-68
2022/07/05 10:09:51;;;;;;;23.48;17.80;;;;;;;-143.10;81.92;50957.81;4789393;29;20070;-68
2022/07/05 10:12:43;;;;;;;23.95;18.48;;;;;;;-143.10;84.38;50979.34;4790723;29;20163;-67
2022/07/05 10:15:28;;;;;;;29.92;20.25;;;;;;;-143.10;81.88;50953.91;4789725;29;20130;-65
2022/07/05 10:18:31;;;;;;;27.20;19.02;;;;;;;-143.10;80.32;50950.00;4783453;29;20427;-69
2022/07/05 10:21:15;;;;;;;27.30;20.00;;;;;;;-143.10;79.71;50963.69;4790920;29;20165;-68
2022/07/05 10:24:05;;;;;;;36.72;25.02;;;;;;;-143.10;82.48;50987.19;4790223;29;20128;-69
2022/07/05 10:26:48;;;;;;;37.95;26.27;;;;;;;-143.10;85.96;51006.75;4790566;29;20147;-67
2022/07/05 10:29:37;;;;;;;40.47;25.23;;;;;;;-143.10;86.08;50944.13;4788836;29;20074;-68
2022/07/05 10:32:28;;;;;;;35.88;24.45;;;;;;;-143.10;87.19;50969.56;4786291;29;20086;-71
2022/07/05 10:35:10;;;;;;;40.05;26.52;;;;;;;-143.10;88.97;50979.34;4779961;29;20147;-70
2022/07/05 10:38:05;;;;;;;37.42;26.75;;;;;;;-143.10;91.93;50983.28;4799302;29;20062;-69
2022/07/05 10:40:49;;;;;;;36.80;28.02;;;;;;;-143.10;94.84;50991.09;4796430;29;20055;-71
2022/07/05 10:43:37;;;;;;;44.30;27.35;;;;;;;-143.10;96.91;50987.19;4782792;30;20143;-69
2022/07/05 10:46:42;;;;;;;36.92;26.33;;;;;;;-143.10;99.09;50983.28;4777472;29;20050;-67
2022/07/05 10:49:30;;;;;;;34.97;27.25;;;;;;;-143.10;100.00;51000.91;4805744;29;20141;-76
2022/07/05 10:52:29;;;;;;;34.70;26.58;;;;;;;-143.10;100.00;50979.34;4800798;29;20062;-70
2022/07/05 10:55:18;;;;;;;33.97;26.10;;;;;;;-143.10;100.00;50987.19;4792984;29;20142;-68
2022/07/05 10:58:40;;;;;;;37.80;26.67;;;;;;;-143.10;100.00;50975.44;4788339;29;20430;-66
2022/07/05 11:01:28;;;;;;;35.97;26.00;;;;;;;-143.10;100.00;51014.59;4750668;29;20483;-66
2022/07/05 11:04:11;;;;;;;42.65;27.10;;;;;;;-143.10;100.00;51024.38;4791252;29;20502;-66
2022/07/05 11:07:00;;;;;;;38.85;28.15;;;;;;;-143.10;100.00;51022.44;4781775;29;20086;-66
2022/07/05 11:10:07;;;;;;;37.20;27.35;;;;;;;-143.10;100.00;50987.19;4784934;29;20075;-66
2022/07/05 11:12:48;;;;;;;37.83;27.23;;;;;;;-143.10;100.00;51024.38;4783770;29;20062;-66
2022/07/05 11:15:38;;;;;;;36.05;26.60;;;;;;;-143.10;100.00;51032.22;4792161;29;20051;-67
2022/07/05 11:18:29;;;;;;;39.45;26.23;;;;;;;-143.10;100.00;51026.34;4786489;29;20086;-65
2022/07/05 11:21:29;;;;;;;41.88;26.13;;;;;;;-143.10;100.00;51010.69;4794394;29;20061;-66
2022/07/05 11:24:23;;;;;;;41.72;28.42;;;;;;;-143.10;100.00;51018.50;4785682;29;20630;-67
2022/07/05 11:27:21;;;;;;;43.03;29.23;;;;;;;-143.10;100.00;51026.34;4817359;29;20046;-67
2022/07/05 11:30:03;;;;;;;39.42;27.05;;;;;;;-143.10;100.00;51006.75;4787200;29;20146;-64
2022/07/05 11:32:53;;;;;;;39.40;29.20;;;;;;;-143.10;100.00;51018.50;4774040;29;20119;-65
2022/07/05 11:35:38;;;;;;;45.53;29.23;;;;;;;-143.10;100.00;51042.00;4788776;29;20062;-67
2022/07/05 11:38:27;;;;;;;38.50;28.05;;;;;;;-143.10;100.00;51022.44;4788490;29;20087;-67
2022/07/05 11:41:22;;;;;;;40.10;29.38;;;;;;;-143.10;100.00;50995.03;4790453;29;20055;-67
2022/07/05 11:44:11;;;;;;;39.45;29.67;;;;;;;-143.10;100.00;51006.75;4787570;29;20081;-68
2022/07/05 11:47:01;;;;;;;40.70;30.77;;;;;;;-143.10;100.00;50995.03;4798270;29;20063;-70
2022/07/05 11:50:06;;;;;;;43.05;29.40;;;;;;;-143.10;100.00;50979.34;4796705;29;20413;-67
2022/07/05 11:52:55;;;;;;;46.00;29.55;;;;;;;-143.10;100.00;51000.91;4799511;29;20146;-67
2022/07/05 11:55:45;;;;;;;52.60;30.27;;;;;;;-143.10;100.00;51000.91;4791273;29;20046;-68
2022/07/05 11:58:33;;;;;;;52.50;31.30;;;;;;;-143.10;100.00;51014.59;4786156;29;20119;-67
2022/07/05 12:01:22;;;;;;;45.00;29.77;;;;;;;-143.10;100.00;51043.97;4795717;29;20139;-67
2022/07/05 12:04:03;;;;;;;45.38;30.17;;;;;;;-143.10;100.00;51018.50;4778939;29;20050;-66
2022/07/05 12:06:53;;;;;;;48.88;30.75;;;;;;;-143.10;100.00;50995.03;4801202;29;20051;-66
2022/07/05 12:12:45;;;;;;;43.17;30.15;;;;;;;-143.10;100.00;51018.50;4818301;29;20058;-67
2022/07/05 12:15:35;;;;;;;44.83;30.15;;;;;;;-143.10;100.00;51018.50;4801488;29;20635;-67
2022/07/05 12:18:24;;;;;;;51.15;32.58;;;;;;;-143.10;100.00;50987.19;4795018;29;20546;-68
2022/07/05 12:21:14;;;;;;;46.67;30.10;;;;;;;-143.10;100.00;50989.16;4798212;29;20046;-70
2022/07/05 12:24:03;;;;;;;49.75;31.73;;;;;;;-143.10;100.00;51026.34;4794600;29;20150;-68
2022/07/05 12:26:44;;;;;;;62.47;31.35;;;;;;;-143.10;100.00;51002.84;4797783;29;20476;-67
2022/07/05 12:29:35;;;;;;;47.10;29.35;;;;;;;-143.10;100.00;51022.44;4796924;29;20553;-67
2022/07/05 12:32:16;;;;;;;59.78;32.65;;;;;;;-143.10;100.00;51006.75;4768215;29;20075;-66
2022/07/05 12:35:07;;;;;;;60.75;33.55;;;;;;;-143.10;100.00;50998.94;4781324;30;20464;-66
2022/07/05 12:37:49;;;;;;;42.08;30.58;;;;;;;-143.10;100.00;51014.59;4781580;29;20051;-65
2022/07/05 12:40:38;;;;;;;48.97;31.38;;;;;;;-143.10;100.00;50995.03;4780679;29;20051;-65
2022/07/05 12:43:21;;;;;;;48.72;30.00;;;;;;;-143.10;100.00;51022.44;4765532;29;20079;-65
2022/07/05 12:46:13;;;;;;;45.88;30.45;;;;;;;-143.10;100.00;50981.31;4780391;29;20140;-66
2022/07/05 12:48:55;;;;;;;38.95;29.33;;;;;;;-143.10;100.00;51040.03;4791715;29;20058;-65